Time;durP1;ratioP1;P1;durP2;ratioP2;P2;SDS_P1;SDS_P2;PMS_P1;PMS_P2;Temp;Humidity;BMP_temperature;BMP_pressure;BME280_temperature;BME280_humidity;BME280_pressure;Samples;Min_cycle;Max_cycle;Signal;HPM_P1;HPM_P2
2022/02/08 00:01:50;;;;;;;14.63;13.10;;;11.40;99.90;;;;;;4981495;28;20498;-65
2022/02/08 00:04:20;;;;;;;14.40;12.33;;;11.40;99.90;;;;;;4981057;28;20773;-61
2022/02/08 00:06:51;;;;;;;13.93;12.53;;;11.30;99.90;;;;;;4980176;28;20590;-61
2022/02/08 00:09:23;;;;;;;14.87;13.43;;;11.20;99.90;;;;;;4981637;28;20526;-61
2022/02/08 00:11:57;;;;;;;16.60;14.57;;;11.30;99.90;;;;;;4980549;28;20466;-62
2022/02/08 00:14:28;;;;;;;16.80;15.10;;;11.20;99.90;;;;;;4982142;28;20456;-62
2022/02/08 00:16:59;;;;;;;18.67;16.67;;;11.10;99.90;;;;;;4982953;28;20456;-61
2022/02/08 00:19:29;;;;;;;19.60;16.17;;;11.00;99.90;;;;;;4981686;28;20553;-62
2022/02/08 00:22:00;;;;;;;22.03;16.83;;;11.10;99.90;;;;;;4987384;28;20449;-62
2022/02/08 00:24:31;;;;;;;19.17;17.00;;;11.00;99.90;;;;;;4981419;28;20503;-61
2022/02/08 00:27:04;;;;;;;19.00;16.93;;;10.90;99.90;;;;;;4981445;28;20557;-61
2022/02/08 00:29:35;;;;;;;18.27;16.37;;;10.90;99.90;;;;;;4981032;28;20463;-61
2022/02/08 00:32:06;;;;;;;19.80;15.80;;;10.90;99.90;;;;;;4971824;28;20462;-61
2022/02/08 00:34:37;;;;;;;23.60;17.40;;;10.80;99.90;;;;;;4981675;28;20565;-63
2022/02/08 00:37:08;;;;;;;19.57;16.53;;;10.90;99.90;;;;;;4979036;28;20539;-62
2022/02/08 00:39:39;;;;;;;18.00;16.07;;;11.00;99.90;;;;;;4976808;28;20568;-62
2022/02/08 00:42:12;;;;;;;18.00;16.20;;;11.10;99.90;;;;;;4981552;28;20462;-62
2022/02/08 00:44:48;;;;;;;17.33;15.30;;;11.20;99.90;;;;;;4981121;28;20470;-62
2022/02/08 00:47:27;;;;;;;17.03;15.20;;;11.00;99.90;;;;;;4982700;28;20459;-62
2022/02/08 00:50:05;;;;;;;20.07;15.63;;;10.90;99.90;;;;;;4982710;28;20466;-63
2022/02/08 00:52:37;;;;;;;16.93;15.00;;;10.90;99.90;;;;;;4982132;28;20460;-62
2022/02/08 00:55:11;;;;;;;18.37;15.50;;;10.80;99.90;;;;;;4981383;28;20535;-63
2022/02/08 00:57:43;;;;;;;16.83;15.07;;;10.90;99.90;;;;;;4978450;28;20466;-63
2022/02/08 01:00:15;;;;;;;17.50;15.10;;;10.80;99.90;;;;;;4979432;28;20483;-62
2022/02/08 01:02:46;;;;;;;17.93;14.80;;;10.70;99.90;;;;;;4984143;28;20471;-62
2022/02/08 01:05:17;;;;;;;15.50;13.87;;;10.70;99.90;;;;;;4985608;28;20451;-62
2022/02/08 01:07:48;;;;;;;17.67;14.47;;;10.70;99.90;;;;;;4986757;28;20456;-61
2022/02/08 01:10:22;;;;;;;15.23;13.67;;;10.60;99.90;;;;;;4983780;28;20453;-62
2022/02/08 01:12:55;;;;;;;16.00;13.93;;;10.60;99.90;;;;;;4984977;28;20462;-60
2022/02/08 01:15:26;;;;;;;16.03;13.50;;;10.60;99.90;;;;;;4986556;28;20459;-60
2022/02/08 01:17:58;;;;;;;16.53;14.20;;;10.60;99.90;;;;;;4984042;28;20452;-61
2022/02/08 01:20:35;;;;;;;17.30;14.70;;;10.60;99.90;;;;;;4982098;28;20499;-59
2022/02/08 01:23:09;;;;;;;19.57;14.73;;;10.60;99.90;;;;;;4979654;28;20466;-61
2022/02/08 01:25:44;;;;;;;15.30;13.70;;;10.60;99.90;;;;;;4984786;28;20486;-60
2022/02/08 01:28:25;;;;;;;15.97;14.27;;;10.40;99.90;;;;;;4984153;28;20617;-60
2022/02/08 01:31:02;;;;;;;16.90;15.10;;;10.30;99.90;;;;;;4985654;28;20508;-61
2022/02/08 01:39:28;;;;;;;16.87;15.03;;;9.90;99.90;;;;;;4977550;28;20484;-60
2022/02/08 01:45:24;;;;;;;18.83;16.93;;;9.60;99.90;;;;;;4902643;29;20479;-60
2022/02/08 01:48:07;;;;;;;18.47;16.30;;;9.40;99.90;;;;;;4903644;29;20460;-62
2022/02/08 01:50:39;;;;;;;17.05;15.20;;;9.30;99.90;;;;;;4903547;29;20474;-60
2022/02/08 01:53:10;;;;;;;17.53;15.00;;;9.20;99.90;;;;;;4903416;29;20283;-66
2022/02/08 01:55:42;;;;;;;19.90;15.80;;;9.10;99.90;;;;;;4905954;29;20474;-62
2022/02/08 01:58:21;;;;;;;19.13;16.83;;;9.00;99.90;;;;;;4906009;29;20483;-64
2022/02/08 02:00:54;;;;;;;18.40;16.57;;;8.90;99.90;;;;;;4906831;29;20536;-64
2022/02/08 02:03:25;;;;;;;19.10;17.10;;;8.90;99.90;;;;;;4906237;29;20471;-65
2022/02/08 02:05:56;;;;;;;19.42;17.02;;;8.80;99.90;;;;;;4905853;29;20906;-64
2022/02/08 02:08:26;;;;;;;21.05;16.88;;;8.70;99.90;;;;;;4904376;29;20203;-65
2022/02/08 02:10:57;;;;;;;19.70;17.77;;;8.70;99.90;;;;;;4904559;29;20219;-63
2022/02/08 02:13:41;;;;;;;20.13;17.60;;;8.60;99.90;;;;;;4906124;29;20444;-68
2022/02/08 02:16:18;;;;;;;22.10;17.37;;;8.60;99.90;;;;;;4901735;29;20207;-63
2022/02/08 02:18:49;;;;;;;19.45;17.40;;;8.60;99.90;;;;;;4903502;29;20833;-66
2022/02/08 02:21:20;;;;;;;21.75;17.58;;;8.60;99.90;;;;;;4953748;28;20228;-65
2022/02/08 02:23:52;;;;;;;22.20;17.85;;;8.60;99.90;;;;;;4984524;28;20209;-63
2022/02/08 02:26:24;;;;;;;22.00;17.67;;;8.60;99.90;;;;;;4983487;28;20311;-68
2022/02/08 02:28:55;;;;;;;21.77;17.73;;;8.60;99.90;;;;;;4981879;28;20193;-68
2022/02/08 02:31:26;;;;;;;21.80;17.85;;;8.60;99.90;;;;;;4982259;28;20292;-63
2022/02/08 02:33:57;;;;;;;21.00;18.30;;;8.50;99.90;;;;;;4972220;28;20248;-66
2022/02/08 02:36:28;;;;;;;21.20;18.27;;;8.50;99.90;;;;;;4978359;28;20215;-67
2022/02/08 02:39:01;;;;;;;23.00;18.10;;;8.50;99.90;;;;;;4980720;28;20460;-65
2022/02/08 02:41:38;;;;;;;26.40;21.92;;;8.60;99.90;;;;;;4989897;28;20498;-65
2022/02/08 02:44:16;;;;;;;27.35;22.95;;;8.70;99.90;;;;;;4973058;28;20612;-63
2022/02/08 02:46:47;;;;;;;23.77;20.90;;;8.80;99.90;;;;;;4985830;28;20200;-63
2022/02/08 02:49:18;;;;;;;23.35;20.98;;;8.80;99.90;;;;;;4981787;28;20456;-59
2022/02/08 02:51:49;;;;;;;25.93;22.20;;;8.80;99.90;;;;;;4978384;28;20213;-59
2022/02/08 02:54:22;;;;;;;23.58;21.08;;;8.80;99.90;;;;;;4982078;28;20456;-59
2022/02/08 02:56:58;;;;;;;22.43;20.10;;;8.80;99.90;;;;;;4982959;28;20200;-59
2022/02/08 02:59:30;;;;;;;23.38;20.15;;;8.80;99.90;;;;;;4990423;28;20457;-58
2022/02/08 03:02:25;;;;;;;23.70;20.27;;;8.80;99.90;;;;;;4984318;28;20607;-60
2022/02/08 03:05:04;;;;;;;23.02;19.63;;;8.80;99.90;;;;;;4982356;28;20188;-59
2022/02/08 03:18:47;;;;;;;23.25;19.88;;;9.10;99.90;;;;;;4980506;28;20214;-59
2022/02/08 03:21:18;;;;;;;23.50;20.92;;;9.10;99.90;;;;;;4982039;28;20232;-59
2022/02/08 03:23:48;;;;;;;21.15;18.90;;;9.20;99.90;;;;;;4982986;28;20280;-59
2022/02/08 03:26:21;;;;;;;24.00;20.47;;;9.20;99.90;;;;;;4981644;28;20226;-59
2022/02/08 03:28:52;;;;;;;23.03;20.60;;;9.20;99.90;;;;;;4977394;28;20460;-59
2022/02/08 03:31:22;;;;;;;22.07;19.73;;;9.30;99.90;;;;;;4981358;28;20456;-59
2022/02/08 03:33:53;;;;;;;20.97;18.50;;;9.30;99.90;;;;;;4982800;28;20527;-60
2022/02/08 03:36:24;;;;;;;23.37;20.33;;;9.30;99.90;;;;;;4981755;28;21743;-59
2022/02/08 03:39:10;;;;;;;21.40;19.00;;;9.30;99.90;;;;;;4983016;28;20797;-60
2022/02/08 03:41:47;;;;;;;21.73;19.53;;;9.30;99.90;;;;;;4982802;28;20487;-60
2022/02/08 03:44:20;;;;;;;24.53;19.97;;;9.30;99.90;;;;;;4983702;28;20487;-59
2022/02/08 03:46:52;;;;;;;21.47;19.27;;;9.30;99.90;;;;;;4972241;28;20464;-59
2022/02/08 03:49:22;;;;;;;24.33;21.00;;;9.30;99.90;;;;;;4978700;28;20543;-60
2022/02/08 03:51:58;;;;;;;22.83;20.13;;;9.30;99.90;;;;;;4982781;28;20562;-60
2022/02/08 03:54:29;;;;;;;22.17;19.83;;;9.30;99.90;;;;;;4983581;28;20294;-58
2022/02/08 03:57:04;;;;;;;23.90;21.30;;;9.60;99.90;;;;;;4983799;28;20279;-59
2022/02/08 03:59:35;;;;;;;21.17;18.83;;;9.60;99.90;;;;;;4984052;28;20570;-59
2022/02/08 04:02:23;;;;;;;22.53;20.00;;;9.50;99.90;;;;;;4983265;28;20519;-58
2022/02/08 04:04:58;;;;;;;20.13;17.88;;;9.30;99.90;;;;;;4973814;28;20452;-58
2022/02/08 04:07:35;;;;;;;20.93;18.77;;;9.30;99.90;;;;;;4982381;28;20299;-61
2022/02/08 04:10:08;;;;;;;20.83;18.70;;;9.30;99.90;;;;;;4981390;28;20638;-58
2022/02/08 04:12:49;;;;;;;22.87;18.83;;;9.30;99.90;;;;;;4982334;28;20519;-59
2022/02/08 04:15:33;;;;;;;27.20;19.77;;;9.30;99.90;;;;;;4978726;28;20453;-60
2022/02/08 04:18:31;;;;;;;22.10;19.63;;;9.30;99.90;;;;;;4980778;28;21250;-59
2022/02/08 04:32:23;;;;;;;23.23;20.92;;;9.20;99.90;;;;;;4981526;28;20253;-59
2022/02/08 04:35:22;;;;;;;23.63;20.85;;;9.30;99.90;;;;;;4976839;28;20208;-61
2022/02/08 04:38:14;;;;;;;24.20;20.60;;;9.40;99.90;;;;;;4984938;28;20661;-61
2022/02/08 04:40:59;;;;;;;24.03;21.13;;;9.50;99.90;;;;;;4984316;28;20963;-61
2022/02/08 04:43:40;;;;;;;26.40;22.00;;;9.50;99.90;;;;;;4977955;28;20513;-60
2022/02/08 04:46:25;;;;;;;25.10;21.40;;;9.50;99.90;;;;;;4988996;28;21154;-61
2022/02/08 04:48:58;;;;;;;25.60;22.43;;;9.40;99.90;;;;;;4985384;28;20573;-61
2022/02/08 04:51:31;;;;;;;24.95;22.33;;;9.40;99.90;;;;;;4985793;28;20458;-60
2022/02/08 04:54:14;;;;;;;24.20;21.42;;;9.40;99.90;;;;;;4986414;28;20220;-60
2022/02/08 04:57:04;;;;;;;25.77;22.97;;;9.40;99.90;;;;;;4992125;28;20226;-61
2022/02/08 05:00:03;;;;;;;24.60;22.00;;;9.40;99.90;;;;;;4986394;28;20474;-61
2022/02/08 05:42:46;;;;;;;30.27;25.00;;;9.30;99.90;;;;;;4956650;29;20533;-62
2022/02/08 05:45:29;;;;;;;30.93;25.33;;;9.20;99.90;;;;;;4955518;29;20467;-61
2022/02/08 05:48:04;;;;;;;30.80;25.53;;;9.20;99.90;;;;;;4955882;29;20463;-62
2022/02/08 05:50:42;;;;;;;28.97;25.63;;;9.10;99.90;;;;;;4953231;29;20476;-62
2022/02/08 05:53:28;;;;;;;25.40;22.58;;;9.00;99.90;;;;;;4952761;29;20512;-61
2022/02/08 05:56:01;;;;;;;30.20;25.07;;;8.90;99.90;;;;;;4955369;29;20198;-60
2022/02/08 05:58:32;;;;;;;30.20;24.48;;;8.80;99.90;;;;;;4959135;29;20484;-61
2022/02/08 06:01:04;;;;;;;27.17;23.63;;;8.70;99.90;;;;;;4956554;28;20336;-61
2022/02/08 06:03:35;;;;;;;24.77;22.27;;;8.60;99.90;;;;;;4955983;29;20464;-61
2022/02/08 06:06:06;;;;;;;26.13;22.95;;;8.60;99.90;;;;;;4956221;29;20834;-60
2022/02/08 06:08:39;;;;;;;26.98;22.80;;;8.50;99.90;;;;;;4974666;28;20264;-61
2022/02/08 06:11:15;;;;;;;29.15;26.17;;;8.40;99.90;;;;;;4979467;28;20264;-61
2022/02/08 06:13:50;;;;;;;25.70;23.03;;;8.40;99.90;;;;;;4979150;28;20216;-61
2022/02/08 06:16:22;;;;;;;24.80;22.20;;;8.40;99.90;;;;;;4979153;28;20455;-61
2022/02/08 06:18:53;;;;;;;25.88;23.08;;;8.30;99.90;;;;;;4979587;28;20223;-61
2022/02/08 06:21:24;;;;;;;27.40;24.30;;;8.40;99.90;;;;;;4979426;28;20236;-61
2022/02/08 06:23:57;;;;;;;27.63;24.73;;;8.30;99.90;;;;;;4980988;28;20260;-61
2022/02/08 06:26:29;;;;;;;26.83;24.30;;;8.30;99.90;;;;;;4980039;28;20195;-61
2022/02/08 06:29:07;;;;;;;29.02;25.50;;;8.30;99.90;;;;;;4987351;28;20684;-61
2022/02/08 06:31:44;;;;;;;29.15;23.85;;;8.30;99.90;;;;;;4974576;28;20287;-61
2022/02/08 06:34:19;;;;;;;27.00;24.30;;;8.30;99.90;;;;;;4979252;28;20519;-60
2022/02/08 06:36:57;;;;;;;28.23;24.90;;;8.30;99.90;;;;;;4976223;28;20233;-60
2022/02/08 06:39:34;;;;;;;27.33;24.45;;;8.40;99.90;;;;;;4979283;28;20201;-61
2022/02/08 06:42:08;;;;;;;30.58;25.67;;;8.40;99.90;;;;;;4977408;28;20243;-61
2022/02/08 06:44:39;;;;;;;28.83;25.73;;;8.40;99.90;;;;;;4981139;28;20199;-60
2022/02/08 06:47:11;;;;;;;31.55;26.23;;;8.40;99.90;;;;;;4975160;28;20212;-60
2022/02/08 06:49:42;;;;;;;29.88;26.27;;;8.40;99.90;;;;;;4980207;28;20232;-61
2022/02/08 06:52:13;;;;;;;31.52;26.27;;;8.40;99.90;;;;;;4977368;28;20205;-60
2022/02/08 06:54:47;;;;;;;28.83;25.42;;;8.50;99.90;;;;;;4980354;28;20229;-60
2022/02/08 06:57:18;;;;;;;27.52;24.27;;;8.60;99.90;;;;;;4983260;28;21584;-60
2022/02/08 07:00:00;;;;;;;29.17;24.10;;;8.50;99.90;;;;;;4990469;28;20212;-60
2022/02/08 07:02:31;;;;;;;29.65;24.95;;;8.50;99.90;;;;;;4980499;28;20229;-61
2022/02/08 07:05:02;;;;;;;28.52;25.52;;;8.30;99.90;;;;;;4980231;28;20226;-60
2022/02/08 07:07:33;;;;;;;28.30;24.85;;;8.20;99.90;;;;;;4980897;28;20248;-60
2022/02/08 07:10:10;;;;;;;31.52;26.23;;;8.10;99.90;;;;;;4980470;28;20208;-59
2022/02/08 07:12:42;;;;;;;30.17;25.95;;;8.00;99.90;;;;;;4983073;28;20208;-60
2022/02/08 07:15:14;;;;;;;29.20;26.10;;;7.90;99.90;;;;;;4981562;28;20195;-60
2022/02/08 07:17:45;;;;;;;29.52;26.27;;;7.80;99.90;;;;;;4984706;28;20201;-62
2022/02/08 07:20:16;;;;;;;30.08;24.83;;;7.80;99.90;;;;;;4983097;28;22190;-60
2022/02/08 07:22:48;;;;;;;28.45;23.48;;;7.80;99.90;;;;;;4982396;28;20228;-61
2022/02/08 07:25:20;;;;;;;27.88;22.33;;;7.70;99.90;;;;;;4984746;28;20205;-61
2022/02/08 07:27:51;;;;;;;27.85;22.55;;;7.70;99.90;;;;;;4983548;28;20215;-61
2022/02/08 07:30:22;;;;;;;23.75;21.25;;;7.60;99.90;;;;;;4984269;28;20633;-61
2022/02/08 07:32:54;;;;;;;28.02;21.98;;;7.60;99.90;;;;;;4982882;28;20196;-61
2022/02/08 07:35:30;;;;;;;26.55;22.33;;;7.50;99.90;;;;;;4986294;28;20212;-60
2022/02/08 07:38:07;;;;;;;29.40;22.00;;;7.50;99.90;;;;;;4997055;28;20233;-61
2022/02/08 07:43:30;;;;;;;25.85;21.48;;;7.30;99.90;;;;;;4987681;28;20220;-60
2022/02/08 07:46:01;;;;;;;29.90;23.10;;;7.20;99.90;;;;;;4983169;28;20232;-61
2022/02/08 07:48:32;;;;;;;27.27;21.38;;;7.20;99.90;;;;;;4988482;28;20207;-61
2022/02/08 07:51:03;;;;;;;29.45;21.27;;;7.20;99.90;;;;;;4981403;28;20680;-60
2022/02/08 07:53:34;;;;;;;24.48;21.23;;;7.10;99.90;;;;;;4982354;28;20283;-61
2022/02/08 07:56:06;;;;;;;25.98;21.27;;;7.10;99.90;;;;;;4983509;28;20256;-60
2022/02/08 07:58:37;;;;;;;24.83;21.00;;;7.10;99.90;;;;;;4983895;28;20222;-60
2022/02/08 08:01:08;;;;;;;25.70;20.85;;;7.00;99.90;;;;;;4981441;28;20586;-60
2022/02/08 08:03:42;;;;;;;22.80;19.98;;;7.00;99.90;;;;;;4982677;28;20208;-59
2022/02/08 08:06:14;;;;;;;21.48;18.38;;;7.00;99.90;;;;;;4981383;28;20326;-59
2022/02/08 08:08:46;;;;;;;20.13;17.90;;;6.80;99.90;;;;;;4977794;28;20211;-61
2022/02/08 08:11:21;;;;;;;20.50;18.02;;;6.80;99.90;;;;;;4985416;28;20223;-60
2022/02/08 08:14:01;;;;;;;22.98;17.70;;;6.70;99.90;;;;;;4992680;28;20210;-60
2022/02/08 08:16:43;;;;;;;20.27;16.73;;;6.60;99.90;;;;;;4980821;28;20215;-60
2022/02/08 08:19:36;;;;;;;20.55;16.05;;;6.60;99.90;;;;;;4985060;28;20571;-61
2022/02/08 08:22:11;;;;;;;22.80;17.88;;;6.60;99.90;;;;;;4987023;28;20660;-61
2022/02/08 08:24:41;;;;;;;20.77;16.67;;;6.60;99.90;;;;;;4982524;28;20206;-60
2022/02/08 08:27:15;;;;;;;19.77;15.70;;;6.60;99.90;;;;;;4993849;28;20196;-60
2022/02/08 08:29:46;;;;;;;20.13;14.18;;;6.50;99.90;;;;;;4992889;28;20204;-60
2022/02/08 08:32:17;;;;;;;19.58;14.63;;;6.40;99.90;;;;;;4987159;28;20208;-60
2022/02/08 08:34:48;;;;;;;15.48;12.85;;;6.40;99.90;;;;;;4988591;28;20219;-60
2022/02/08 08:37:19;;;;;;;15.60;13.27;;;6.40;99.90;;;;;;4986893;28;20662;-60
2022/02/08 08:39:52;;;;;;;19.58;13.98;;;6.30;99.90;;;;;;4988928;28;20231;-60
2022/02/08 08:42:37;;;;;;;16.55;14.80;;;6.30;99.90;;;;;;4985345;28;20234;-60
2022/02/08 08:48:30;;;;;;;17.23;14.30;;;6.20;99.90;;;;;;4987601;28;20220;-60
2022/02/08 08:51:25;;;;;;;16.90;13.63;;;6.10;99.90;;;;;;4988757;28;20200;-60
2022/02/08 08:53:56;;;;;;;18.48;13.88;;;6.00;99.90;;;;;;4984730;28;20209;-60
2022/02/08 08:56:26;;;;;;;15.35;12.40;;;5.90;99.90;;;;;;4977315;28;20216;-60
2022/02/08 08:58:59;;;;;;;15.40;13.40;;;5.90;99.90;;;;;;4985152;28;20189;-60
2022/02/08 09:01:30;;;;;;;17.25;12.45;;;5.80;99.90;;;;;;4986769;28;20223;-60
2022/02/08 09:04:02;;;;;;;20.33;13.50;;;5.70;99.90;;;;;;4985433;28;20235;-60
2022/02/08 09:06:35;;;;;;;14.00;12.43;;;5.70;99.90;;;;;;4986560;28;20228;-60
2022/02/08 09:09:09;;;;;;;15.32;13.43;;;5.80;99.90;;;;;;4989494;28;20331;-59
2022/02/08 09:11:52;;;;;;;20.27;14.25;;;5.70;99.90;;;;;;4978036;28;20214;-59
2022/02/08 09:14:38;;;;;;;16.17;12.43;;;5.80;99.90;;;;;;4985482;28;20200;-59
2022/02/08 09:20:41;;;;;;;15.07;12.20;;;5.70;99.90;;;;;;4934595;29;20219;-60
2022/02/08 09:24:07;;;;;;;15.05;11.88;;;5.70;99.90;;;;;;4940286;29;20240;-59
2022/02/08 09:27:01;;;;;;;14.18;12.52;;;5.70;99.90;;;;;;4941553;29;20202;-60
2022/02/08 09:29:45;;;;;;;14.48;11.98;;;5.70;99.90;;;;;;4940809;29;20607;-59
2022/02/08 09:32:18;;;;;;;18.60;13.43;;;5.70;99.90;;;;;;4939831;29;20216;-60
2022/02/08 09:34:50;;;;;;;19.35;12.80;;;5.70;99.90;;;;;;4941873;29;20194;-59
2022/02/08 09:37:21;;;;;;;18.50;11.77;;;5.60;99.90;;;;;;4939606;29;20207;-60
2022/02/08 09:39:54;;;;;;;20.58;12.38;;;5.50;99.90;;;;;;4935318;29;20211;-60
2022/02/08 09:42:25;;;;;;;16.90;13.02;;;5.50;99.90;;;;;;4938870;29;20317;-60
2022/02/08 09:44:59;;;;;;;17.58;12.02;;;5.40;99.90;;;;;;4942182;29;20243;-59
2022/02/08 09:47:37;;;;;;;16.70;12.35;;;5.40;99.90;;;;;;4939305;29;20194;-59
2022/02/08 09:50:15;;;;;;;17.35;12.10;;;5.40;99.90;;;;;;4944630;29;20216;-59
2022/02/08 09:52:50;;;;;;;15.75;11.68;;;5.30;99.90;;;;;;4938543;29;20202;-59
2022/02/08 09:55:21;;;;;;;16.70;12.10;;;5.30;99.90;;;;;;4957875;28;20222;-60
2022/02/08 09:57:52;;;;;;;19.83;11.25;;;5.30;99.90;;;;;;4985206;28;20208;-59
2022/02/08 10:00:26;;;;;;;16.33;12.55;;;5.30;99.90;;;;;;4981930;28;20216;-59
2022/02/08 10:03:06;;;;;;;15.45;12.43;;;5.30;99.90;;;;;;4992338;28;20208;-59
2022/02/08 10:05:44;;;;;;;20.35;12.55;;;5.20;99.90;;;;;;4987214;28;20238;-59
2022/02/08 10:08:16;;;;;;;17.10;12.68;;;5.20;99.90;;;;;;4984662;28;20296;-59
2022/02/08 10:10:46;;;;;;;19.60;12.02;;;5.20;99.90;;;;;;4984521;28;20309;-59
2022/02/08 10:13:42;;;;;;;16.80;12.25;;;5.10;99.90;;;;;;4985947;28;20278;-59
2022/02/08 10:19:26;;;;;;;16.20;11.93;;;5.00;99.90;;;;;;4984854;28;20250;-60
2022/02/08 10:22:06;;;;;;;13.80;12.38;;;4.90;99.90;;;;;;4982080;28;20216;-59
2022/02/08 10:24:38;;;;;;;18.92;14.60;;;4.90;99.90;;;;;;4984311;28;20229;-60
2022/02/08 10:27:27;;;;;;;17.73;11.60;;;4.90;99.90;;;;;;4984124;28;20193;-59
2022/02/08 10:30:26;;;;;;;15.00;10.45;;;4.80;99.90;;;;;;4991032;28;20193;-59
2022/02/08 10:38:42;;;;;;;15.88;12.80;;;4.70;99.90;;;;;;4979686;28;20204;-60
2022/02/08 10:41:14;;;;;;;13.07;11.65;;;4.70;99.90;;;;;;4976064;28;20220;-59
2022/02/08 10:43:56;;;;;;;21.67;12.95;;;4.60;99.90;;;;;;4983485;28;20224;-59
2022/02/08 10:46:27;;;;;;;16.17;11.18;;;4.60;99.90;;;;;;4985737;28;20263;-59
2022/02/08 10:49:07;;;;;;;18.55;11.85;;;4.60;99.90;;;;;;4985432;28;20219;-59
2022/02/08 10:51:45;;;;;;;16.88;10.70;;;4.50;99.90;;;;;;4978677;28;20192;-60
2022/02/08 10:54:23;;;;;;;13.77;11.30;;;4.50;99.90;;;;;;4985856;28;20682;-60
2022/02/08 10:57:00;;;;;;;15.05;12.10;;;4.30;99.90;;;;;;4984297;28;20208;-59
2022/02/08 10:59:36;;;;;;;13.48;10.35;;;4.30;99.90;;;;;;4994231;28;20209;-59
2022/02/08 11:02:14;;;;;;;16.95;12.52;;;4.30;99.90;;;;;;4983860;28;20212;-59
2022/02/08 11:04:50;;;;;;;13.85;11.40;;;4.30;99.90;;;;;;4984166;28;20228;-59
2022/02/08 11:07:46;;;;;;;14.30;11.75;;;4.30;99.90;;;;;;4984872;28;20223;-59
2022/02/08 11:10:29;;;;;;;15.40;11.95;;;4.20;99.90;;;;;;4983684;28;20294;-62
2022/02/08 11:13:13;;;;;;;16.42;11.82;;;4.20;99.90;;;;;;4981242;28;20714;-60
2022/02/08 11:15:49;;;;;;;15.50;10.75;;;4.10;99.90;;;;;;4983817;28;20288;-59
2022/02/08 11:18:33;;;;;;;15.93;10.98;;;4.10;99.90;;;;;;4984345;28;20204;-59
2022/02/08 11:21:19;;;;;;;29.35;12.43;;;4.10;99.90;;;;;;4986268;28;20223;-60
2022/02/08 11:24:01;;;;;;;22.30;11.98;;;4.10;99.90;;;;;;4982425;28;20567;-59
2022/02/08 11:26:39;;;;;;;19.05;12.60;;;4.10;99.90;;;;;;4978219;28;20205;-59
2022/02/08 11:29:13;;;;;;;16.92;11.90;;;4.10;99.90;;;;;;4981762;28;20268;-59
2022/02/08 11:31:50;;;;;;;17.33;10.93;;;4.00;99.90;;;;;;4984275;28;20284;-59
2022/02/08 11:46:10;;;;;;;18.50;13.23;;;4.20;99.90;;;;;;4979579;28;20201;-60
2022/02/08 11:49:01;;;;;;;16.02;11.50;;;4.20;99.90;;;;;;4981630;28;20193;-60
2022/02/08 11:51:46;;;;;;;16.75;12.65;;;4.30;99.90;;;;;;4988167;28;20290;-60
2022/02/08 11:54:34;;;;;;;17.38;11.48;;;4.40;99.90;;;;;;4987549;28;20280;-60
2022/02/08 12:00:19;;;;;;;17.52;11.70;;;4.60;99.90;;;;;;4957493;28;20208;-60
2022/02/08 12:05:44;;;;;;;13.45;11.48;;;4.70;99.90;;;;;;4983515;28;20247;-60
2022/02/08 12:08:17;;;;;;;17.20;11.43;;;4.90;99.90;;;;;;4981728;28;20232;-60
2022/02/08 12:10:56;;;;;;;17.77;12.90;;;5.00;99.90;;;;;;4982282;28;20648;-60
2022/02/08 12:36:13;;;;;;;19.55;11.98;;;5.40;99.90;;;;;;4982922;28;20661;-60
2022/02/08 12:50:26;;;;;;;22.67;13.38;;;5.50;99.90;;;;;;4982651;28;20205;-60
2022/02/08 12:56:09;;;;;;;25.98;13.63;;;5.60;99.90;;;;;;4987879;28;20206;-60
2022/02/08 12:59:02;;;;;;;23.52;13.68;;;5.60;99.90;;;;;;4985002;28;20205;-60
2022/02/08 13:02:07;;;;;;;24.13;14.35;;;5.60;99.90;;;;;;4982321;28;20213;-60
2022/02/08 13:04:59;;;;;;;21.08;13.30;;;5.70;99.90;;;;;;4986851;28;20297;-60
2022/02/08 13:19:59;;;;;;;28.83;14.88;;;5.60;99.90;;;;;;4987588;28;20227;-59
2022/02/08 14:02:00;;;;;;;27.27;14.60;;;5.50;99.90;;;;;;4993494;28;20196;-58
2022/02/08 14:07:31;;;;;;;26.67;14.57;;;5.50;99.90;;;;;;4979112;28;20244;-59
2022/02/08 14:10:17;;;;;;;70.30;19.00;;;5.50;99.90;;;;;;4986991;28;20204;-59
2022/02/08 14:13:31;;;;;;;83.47;20.85;;;5.50;99.90;;;;;;4984375;28;20205;-59
2022/02/08 14:16:14;;;;;;;78.82;19.73;;;5.60;99.90;;;;;;4984136;28;20323;-59
2022/02/08 14:19:03;;;;;;;51.42;16.90;;;5.50;99.90;;;;;;4985049;28;20299;-59
2022/02/08 14:21:41;;;;;;;44.80;16.92;;;5.50;99.90;;;;;;4984465;28;20203;-58
2022/02/08 14:24:19;;;;;;;60.08;16.73;;;5.50;99.90;;;;;;4985246;28;20195;-59
2022/02/08 14:29:46;;;;;;;71.90;16.92;;;5.50;99.90;;;;;;4984903;28;20227;-58
2022/02/08 14:32:29;;;;;;;42.70;15.10;;;5.50;99.90;;;;;;4984293;28;20200;-58
2022/02/08 14:49:28;;;;;;;30.13;14.13;;;5.50;99.90;;;;;;4990878;28;20623;-58
2022/02/08 14:58:18;;;;;;;54.80;15.40;;;5.40;99.90;;;;;;4995932;28;20203;-60
2022/02/08 15:05:25;;;;;;;16.83;9.82;;;5.30;99.90;;;;;;4991627;28;20202;-60
2022/02/08 15:09:17;;;;;;;41.65;12.93;;;5.20;99.90;;;;;;4904160;29;20215;-59
2022/02/08 15:12:00;;;;;;;21.10;10.73;;;5.20;99.90;;;;;;4908122;29;20311;-60
2022/02/08 15:14:37;;;;;;;40.08;12.43;;;5.20;99.90;;;;;;4898616;29;20710;-59
2022/02/08 15:17:09;;;;;;;40.75;11.90;;;5.30;99.90;;;;;;4901512;29;20295;-60
2022/02/08 15:19:42;;;;;;;26.65;10.63;;;5.30;99.90;;;;;;4906432;29;20211;-60
2022/02/08 15:22:13;;;;;;;19.88;9.32;;;5.40;99.90;;;;;;4904376;29;20223;-60
2022/02/08 15:24:44;;;;;;;34.67;11.18;;;5.40;99.90;;;;;;4906784;29;20218;-60
2022/02/08 15:27:16;;;;;;;57.80;12.95;;;5.30;99.90;;;;;;4905277;29;20226;-58
2022/02/08 15:29:49;;;;;;;21.70;10.45;;;5.30;99.90;;;;;;4916780;29;20211;-58
2022/02/08 15:32:22;;;;;;;20.08;10.65;;;5.30;99.90;;;;;;4904893;29;20218;-58
2022/02/08 15:34:52;;;;;;;28.05;10.35;;;5.10;99.90;;;;;;4912440;29;20191;-57
2022/02/08 15:37:30;;;;;;;25.17;11.60;;;5.20;99.90;;;;;;4912244;29;20238;-58
2022/02/08 15:40:01;;;;;;;21.10;10.10;;;5.30;99.90;;;;;;4899474;29;20199;-58
2022/02/08 15:42:33;;;;;;;21.92;10.27;;;5.20;99.90;;;;;;4933410;28;20201;-59
2022/02/08 15:45:13;;;;;;;381.63;67.32;;;5.30;99.90;;;;;;4982896;28;20224;-57
2022/02/08 15:47:45;;;;;;;31.55;13.40;;;5.30;99.90;;;;;;4983149;28;20224;-58
2022/02/08 15:50:21;;;;;;;36.08;15.23;;;5.50;99.90;;;;;;4983539;28;20208;-58
2022/02/08 15:53:12;;;;;;;693.00;126.80;;;5.40;99.90;;;;;;4986040;28;20199;-59
2022/02/08 15:55:52;;;;;;;1443.05;250.73;;;5.40;99.90;;;;;;4985926;28;20216;-57
2022/02/08 15:58:27;;;;;;;153.93;34.33;;;5.60;99.90;;;;;;4989210;28;20192;-58
2022/02/08 16:01:11;;;;;;;1065.15;186.27;;;5.50;99.90;;;;;;4977599;28;20204;-58
2022/02/08 16:09:27;;;;;;;1999.90;417.90;;;5.60;99.90;;;;;;4982965;28;20203;-59
2022/02/08 16:12:25;;;;;;;26.38;13.35;;;5.70;99.90;;;;;;4982188;28;20211;-62
2022/02/08 16:17:56;;;;;;;284.83;54.38;;;5.60;99.90;;;;;;4967594;28;20204;-62
2022/02/08 16:20:41;;;;;;;37.90;16.55;;;5.60;99.90;;;;;;4983629;28;20231;-62
2022/02/08 16:26:04;;;;;;;1986.63;465.77;;;5.80;99.90;;;;;;4984535;28;20323;-61
2022/02/08 16:31:57;;;;;;;899.17;170.85;;;5.90;99.90;;;;;;4966362;28;20204;-60
2022/02/08 16:49:09;;;;;;;474.85;91.85;;;6.00;99.90;;;;;;4943796;29;20217;-64
2022/02/08 16:54:39;;;;;;;286.00;56.85;;;5.90;99.90;;;;;;4912644;29;20215;-63
2022/02/08 16:57:16;;;;;;;135.88;33.88;;;5.80;99.90;;;;;;4933546;29;20210;-63
2022/02/08 16:59:47;;;;;;;30.25;15.80;;;5.70;99.90;;;;;;4946521;29;20206;-63
2022/02/08 17:02:20;;;;;;;25.27;14.75;;;5.80;99.90;;;;;;4938065;29;20194;-62
2022/02/08 17:04:52;;;;;;;25.08;14.40;;;5.80;99.90;;;;;;4932447;29;20202;-60
2022/02/08 17:07:22;;;;;;;23.45;14.75;;;5.80;99.90;;;;;;4939719;29;20323;-61
2022/02/08 17:09:58;;;;;;;211.40;44.97;;;5.80;99.90;;;;;;4941804;29;20230;-61
2022/02/08 17:12:36;;;;;;;1674.15;309.65;;;5.90;99.90;;;;;;4943343;29;20265;-61
2022/02/08 17:15:39;;;;;;;23.85;14.98;;;5.90;99.90;;;;;;4939655;29;20286;-61
2022/02/08 17:18:44;;;;;;;53.88;17.50;;;6.10;99.90;;;;;;4938700;29;20220;-61
2022/02/08 17:46:45;;;;;;;342.27;66.00;;;6.50;99.90;;;;;;4897857;29;20242;-62
2022/02/08 17:49:16;;;;;;;15.57;9.75;;;6.50;99.90;;;;;;4902075;29;20207;-61
2022/02/08 17:51:48;;;;;;;14.10;9.55;;;6.40;99.90;;;;;;4892805;29;20232;-62
2022/02/08 17:54:19;;;;;;;13.98;9.90;;;6.40;99.90;;;;;;4905198;29;20211;-62
2022/02/08 17:56:51;;;;;;;12.38;9.55;;;6.30;99.90;;;;;;4910567;29;20208;-62
2022/02/08 17:59:24;;;;;;;16.30;9.63;;;6.40;99.90;;;;;;4903945;29;20307;-62
2022/02/08 18:01:55;;;;;;;180.15;36.97;;;6.50;99.90;;;;;;4913579;29;20211;-62
2022/02/08 18:04:26;;;;;;;19.27;11.55;;;6.50;99.90;;;;;;4906403;29;20215;-61
2022/02/08 18:06:56;;;;;;;16.98;9.68;;;6.50;99.90;;;;;;4905981;29;20243;-62
2022/02/08 18:09:28;;;;;;;285.10;58.45;;;6.50;99.90;;;;;;4904982;29;20199;-61